sensor_id;sensor_type;location;lat;lon;timestamp;pressure;altitude;pressure_sealevel;temperature;humidity
9969;BME280;5025;48.890;9.278;2024-02-04T00:02:04;99925.16;;;8.01;86.93
9969;BME280;5025;48.890;9.278;2024-02-04T00:04:31;99912.09;;;7.98;87.03
9969;BME280;5025;48.890;9.278;2024-02-04T00:06:57;99903.84;;;8.00;86.97
9969;BME280;5025;48.890;9.278;2024-02-04T00:09:22;99899.66;;;7.97;86.96
9969;BME280;5025;48.890;9.278;2024-02-04T00:11:48;99891.41;;;7.99;86.97
9969;BME280;5025;48.890;9.278;2024-02-04T00:14:13;99888.53;;;8.00;86.59
9969;BME280;5025;48.890;9.278;2024-02-04T00:16:38;99879.81;;;7.98;86.64
9969;BME280;5025;48.890;9.278;2024-02-04T00:19:03;99871.44;;;7.93;86.89
9969;BME280;5025;48.890;9.278;2024-02-04T00:21:29;99869.78;;;7.92;86.94
9969;BME280;5025;48.890;9.278;2024-02-04T00:23:54;99864.78;;;7.89;86.82
9969;BME280;5025;48.890;9.278;2024-02-04T00:26:19;99870.16;;;7.89;87.09
9969;BME280;5025;48.890;9.278;2024-02-04T00:28:44;99874.59;;;7.82;87.28
9969;BME280;5025;48.890;9.278;2024-02-04T00:31:10;99876.28;;;7.83;87.67
9969;BME280;5025;48.890;9.278;2024-02-04T00:33:35;99873.75;;;7.81;87.61
9969;BME280;5025;48.890;9.278;2024-02-04T00:36:00;99870.53;;;7.86;87.40
9969;BME280;5025;48.890;9.278;2024-02-04T00:38:26;99870.78;;;7.91;87.35
9969;BME280;5025;48.890;9.278;2024-02-04T00:40:51;99856.53;;;7.90;87.34
9969;BME280;5025;48.890;9.278;2024-02-04T00:43:17;99859.94;;;7.99;86.91
9969;BME280;5025;48.890;9.278;2024-02-04T00:45:43;99863.75;;;8.05;86.47
9969;BME280;5025;48.890;9.278;2024-02-04T00:48:08;99867.56;;;8.11;86.13
9969;BME280;5025;48.890;9.278;2024-02-04T00:50:33;99862.19;;;8.11;86.01
9969;BME280;5025;48.890;9.278;2024-02-04T00:52:58;99863.19;;;8.10;85.64
9969;BME280;5025;48.890;9.278;2024-02-04T00:55:24;99879.78;;;8.13;85.41
9969;BME280;5025;48.890;9.278;2024-02-04T00:57:49;99878.78;;;8.14;85.30
9969;BME280;5025;48.890;9.278;2024-02-04T01:00:15;99875.09;;;8.15;85.17
9969;BME280;5025;48.890;9.278;2024-02-04T01:02:40;99874.53;;;8.20;84.94
9969;BME280;5025;48.890;9.278;2024-02-04T01:05:06;99877.22;;;8.20;84.81
9969;BME280;5025;48.890;9.278;2024-02-04T01:07:32;99866.44;;;8.20;84.60
9969;BME280;5025;48.890;9.278;2024-02-04T01:09:57;99872.56;;;8.14;84.72
9969;BME280;5025;48.890;9.278;2024-02-04T01:12:22;99884.16;;;8.14;84.59
9969;BME280;5025;48.890;9.278;2024-02-04T01:14:47;99877.41;;;8.18;84.29
9969;BME280;5025;48.890;9.278;2024-02-04T01:17:13;99878.50;;;8.24;84.22
9969;BME280;5025;48.890;9.278;2024-02-04T01:19:38;99874.41;;;8.28;83.93
9969;BME280;5025;48.890;9.278;2024-02-04T01:22:03;99877.75;;;8.30;83.85
9969;BME280;5025;48.890;9.278;2024-02-04T01:24:28;99873.22;;;8.31;83.80
9969;BME280;5025;48.890;9.278;2024-02-04T01:26:54;99871.09;;;8.26;83.83
9969;BME280;5025;48.890;9.278;2024-02-04T01:29:19;99870.72;;;8.29;83.47
9969;BME280;5025;48.890;9.278;2024-02-04T01:31:44;99875.59;;;8.25;83.70
9969;BME280;5025;48.890;9.278;2024-02-04T01:34:09;99864.88;;;8.11;83.49
9969;BME280;5025;48.890;9.278;2024-02-04T01:36:34;99858.81;;;8.08;84.00
9969;BME280;5025;48.890;9.278;2024-02-04T01:39:01;99853.19;;;8.03;83.82
9969;BME280;5025;48.890;9.278;2024-02-04T01:41:26;99852.16;;;8.04;83.99
9969;BME280;5025;48.890;9.278;2024-02-04T01:43:53;99854.66;;;8.06;83.89
9969;BME280;5025;48.890;9.278;2024-02-04T01:46:18;99849.94;;;8.08;83.93
9969;BME280;5025;48.890;9.278;2024-02-04T01:48:43;99853.94;;;8.12;83.59
9969;BME280;5025;48.890;9.278;2024-02-04T01:51:09;99860.97;;;8.13;83.52
9969;BME280;5025;48.890;9.278;2024-02-04T01:53:36;99851.88;;;8.14;83.46
9969;BME280;5025;48.890;9.278;2024-02-04T01:56:02;99863.28;;;8.16;83.36
9969;BME280;5025;48.890;9.278;2024-02-04T01:58:28;99858.25;;;8.13;83.48
9969;BME280;5025;48.890;9.278;2024-02-04T02:00:54;99868.19;;;8.13;83.52
9969;BME280;5025;48.890;9.278;2024-02-04T02:03:19;99860.97;;;8.13;83.61
9969;BME280;5025;48.890;9.278;2024-02-04T02:05:45;99861.63;;;8.15;83.37
9969;BME280;5025;48.890;9.278;2024-02-04T02:08:10;99856.88;;;8.17;83.26
9969;BME280;5025;48.890;9.278;2024-02-04T02:10:36;99858.38;;;8.20;83.20
9969;BME280;5025;48.890;9.278;2024-02-04T02:13:16;99851.56;;;8.24;82.98
9969;BME280;5025;48.890;9.278;2024-02-04T02:15:51;99854.94;;;8.26;82.83
9969;BME280;5025;48.890;9.278;2024-02-04T02:18:29;99860.97;;;8.28;82.96
9969;BME280;5025;48.890;9.278;2024-02-04T02:24:12;99849.06;;;8.22;82.75
9969;BME280;5025;48.890;9.278;2024-02-04T02:26:40;99850.31;;;8.20;82.81
9969;BME280;5025;48.890;9.278;2024-02-04T02:29:06;99848.44;;;8.20;82.94
9969;BME280;5025;48.890;9.278;2024-02-04T02:31:37;99850.31;;;8.20;82.79
9969;BME280;5025;48.890;9.278;2024-02-04T02:34:03;99849.25;;;8.21;82.59
9969;BME280;5025;48.890;9.278;2024-02-04T02:36:31;99854.28;;;8.24;82.44
9969;BME280;5025;48.890;9.278;2024-02-04T02:39:24;99849.94;;;8.23;82.48
9969;BME280;5025;48.890;9.278;2024-02-04T02:41:52;99851.13;;;8.20;82.41
9969;BME280;5025;48.890;9.278;2024-02-04T02:44:19;99843.06;;;8.20;82.13
9969;BME280;5025;48.890;9.278;2024-02-04T02:46:46;99845.75;;;8.20;82.18
9969;BME280;5025;48.890;9.278;2024-02-04T02:49:13;99845.28;;;8.17;82.20
9969;BME280;5025;48.890;9.278;2024-02-04T02:51:38;99845.66;;;8.14;82.07
9969;BME280;5025;48.890;9.278;2024-02-04T02:54:03;99845.66;;;8.14;81.97
9969;BME280;5025;48.890;9.278;2024-02-04T02:56:29;99841.13;;;8.14;81.96
9969;BME280;5025;48.890;9.278;2024-02-04T02:58:54;99839.72;;;8.03;82.08
9969;BME280;5025;48.890;9.278;2024-02-04T03:01:19;99842.41;;;8.03;82.07
9969;BME280;5025;48.890;9.278;2024-02-04T03:03:45;99847.97;;;8.02;82.10
9969;BME280;5025;48.890;9.278;2024-02-04T03:06:10;99850.13;;;8.06;82.25
9969;BME280;5025;48.890;9.278;2024-02-04T03:08:35;99841.03;;;8.07;82.15
9969;BME280;5025;48.890;9.278;2024-02-04T03:11:00;99830.47;;;8.06;81.90
9969;BME280;5025;48.890;9.278;2024-02-04T03:13:25;99837.13;;;8.10;82.16
9969;BME280;5025;48.890;9.278;2024-02-04T03:15:51;99826.16;;;8.12;82.17
9969;BME280;5025;48.890;9.278;2024-02-04T03:18:16;99829.41;;;8.07;82.06
9969;BME280;5025;48.890;9.278;2024-02-04T03:20:41;99830.84;;;8.03;82.25
9969;BME280;5025;48.890;9.278;2024-02-04T03:23:06;99828.59;;;8.06;82.11
9969;BME280;5025;48.890;9.278;2024-02-04T03:25:32;99832.78;;;8.09;82.19
9969;BME280;5025;48.890;9.278;2024-02-04T03:27:57;99837.13;;;8.10;81.76
9969;BME280;5025;48.890;9.278;2024-02-04T03:30:22;99823.66;;;8.10;81.70
9969;BME280;5025;48.890;9.278;2024-02-04T03:32:47;99831.94;;;8.08;81.82
9969;BME280;5025;48.890;9.278;2024-02-04T03:35:13;99834.06;;;8.13;81.65
9969;BME280;5025;48.890;9.278;2024-02-04T03:37:38;99841.94;;;8.15;81.72
9969;BME280;5025;48.890;9.278;2024-02-04T03:40:04;99832.84;;;8.16;81.45
9969;BME280;5025;48.890;9.278;2024-02-04T03:42:29;99839.91;;;8.17;81.56
9969;BME280;5025;48.890;9.278;2024-02-04T03:44:55;99838.25;;;8.16;81.31
9969;BME280;5025;48.890;9.278;2024-02-04T03:47:20;99833.69;;;8.16;81.31
9969;BME280;5025;48.890;9.278;2024-02-04T03:49:46;99829.16;;;8.17;81.43
9969;BME280;5025;48.890;9.278;2024-02-04T03:52:11;99825.41;;;8.18;81.24
9969;BME280;5025;48.890;9.278;2024-02-04T03:54:36;99828.78;;;8.20;81.07
9969;BME280;5025;48.890;9.278;2024-02-04T03:57:01;99829.41;;;8.22;81.25
9969;BME280;5025;48.890;9.278;2024-02-04T03:59:27;99828.41;;;8.23;81.04
9969;BME280;5025;48.890;9.278;2024-02-04T04:01:52;99831.28;;;8.21;81.16
9969;BME280;5025;48.890;9.278;2024-02-04T04:04:19;99840.81;;;8.24;80.90
9969;BME280;5025;48.890;9.278;2024-02-04T04:06:45;99842.50;;;8.25;80.84
9969;BME280;5025;48.890;9.278;2024-02-04T04:09:11;99835.44;;;8.24;80.93
9969;BME280;5025;48.890;9.278;2024-02-04T04:11:36;99837.31;;;8.23;81.00
9969;BME280;5025;48.890;9.278;2024-02-04T04:14:01;99832.56;;;8.25;80.78
9969;BME280;5025;48.890;9.278;2024-02-04T04:16:27;99843.81;;;8.29;80.75
9969;BME280;5025;48.890;9.278;2024-02-04T04:18:52;99846.69;;;8.28;80.78
9969;BME280;5025;48.890;9.278;2024-02-04T04:21:17;99850.84;;;8.30;80.73
9969;BME280;5025;48.890;9.278;2024-02-04T04:23:43;99850.19;;;8.28;80.57
9969;BME280;5025;48.890;9.278;2024-02-04T04:26:08;99847.31;;;8.30;80.58
9969;BME280;5025;48.890;9.278;2024-02-04T04:28:34;99843.63;;;8.31;80.57
9969;BME280;5025;48.890;9.278;2024-02-04T04:30:59;99847.13;;;8.31;80.63
9969;BME280;5025;48.890;9.278;2024-02-04T04:33:24;99842.75;;;8.30;80.62
9969;BME280;5025;48.890;9.278;2024-02-04T04:35:50;99842.13;;;8.28;80.75
9969;BME280;5025;48.890;9.278;2024-02-04T04:38:15;99844.19;;;8.26;80.59
9969;BME280;5025;48.890;9.278;2024-02-04T04:40:40;99844.19;;;8.26;80.76
9969;BME280;5025;48.890;9.278;2024-02-04T04:43:06;99846.88;;;8.26;80.54
9969;BME280;5025;48.890;9.278;2024-02-04T04:45:31;99844.00;;;8.28;80.19
9969;BME280;5025;48.890;9.278;2024-02-04T04:47:57;99837.56;;;8.29;80.26
9969;BME280;5025;48.890;9.278;2024-02-04T04:50:22;99842.94;;;8.29;80.34
9969;BME280;5025;48.890;9.278;2024-02-04T04:52:48;99849.56;;;8.26;80.14
9969;BME280;5025;48.890;9.278;2024-02-04T04:55:13;99840.81;;;8.24;80.21
9969;BME280;5025;48.890;9.278;2024-02-04T04:57:39;99846.56;;;8.21;80.24
9969;BME280;5025;48.890;9.278;2024-02-04T05:00:06;99846.03;;;8.11;80.53
9969;BME280;5025;48.890;9.278;2024-02-04T05:02:32;99847.88;;;8.10;80.81
9969;BME280;5025;48.890;9.278;2024-02-04T05:04:58;99846.69;;;8.13;80.82
9969;BME280;5025;48.890;9.278;2024-02-04T05:07:23;99838.59;;;8.13;80.62
9969;BME280;5025;48.890;9.278;2024-02-04T05:09:48;99840.94;;;8.16;80.54
9969;BME280;5025;48.890;9.278;2024-02-04T05:12:14;99841.56;;;8.18;80.56
9969;BME280;5025;48.890;9.278;2024-02-04T05:14:39;99849.00;;;8.16;80.63
9969;BME280;5025;48.890;9.278;2024-02-04T05:17:04;99849.00;;;8.16;80.64
9969;BME280;5025;48.890;9.278;2024-02-04T05:19:30;99847.31;;;8.15;80.54
9969;BME280;5025;48.890;9.278;2024-02-04T05:21:55;99850.94;;;8.22;80.34
9969;BME280;5025;48.890;9.278;2024-02-04T05:24:21;99845.56;;;8.22;80.44
9969;BME280;5025;48.890;9.278;2024-02-04T05:26:46;99838.31;;;8.22;80.51
9969;BME280;5025;48.890;9.278;2024-02-04T05:29:11;99838.13;;;8.24;80.50
9969;BME280;5025;48.890;9.278;2024-02-04T05:31:41;99852.63;;;8.23;80.58
9969;BME280;5025;48.890;9.278;2024-02-04T05:34:06;99845.19;;;8.25;80.61
9969;BME280;5025;48.890;9.278;2024-02-04T05:36:32;99844.56;;;8.23;80.42
9969;BME280;5025;48.890;9.278;2024-02-04T05:39:08;99847.44;;;8.21;80.74
9969;BME280;5025;48.890;9.278;2024-02-04T05:41:34;99846.31;;;8.16;80.78
9969;BME280;5025;48.890;9.278;2024-02-04T05:43:59;99850.00;;;8.15;80.99
9969;BME280;5025;48.890;9.278;2024-02-04T05:46:24;99850.88;;;8.15;81.14
9969;BME280;5025;48.890;9.278;2024-02-04T05:48:50;99851.06;;;8.14;80.78
9969;BME280;5025;48.890;9.278;2024-02-04T05:51:15;99851.06;;;8.14;81.03
9969;BME280;5025;48.890;9.278;2024-02-04T05:53:40;99845.66;;;8.14;81.38
9969;BME280;5025;48.890;9.278;2024-02-04T05:56:05;99856.44;;;8.14;81.27
9969;BME280;5025;48.890;9.278;2024-02-04T05:58:31;99857.44;;;8.13;81.22
9969;BME280;5025;48.890;9.278;2024-02-04T06:00:56;99858.44;;;8.12;81.30
9969;BME280;5025;48.890;9.278;2024-02-04T06:03:21;99859.31;;;8.12;81.13
9969;BME280;5025;48.890;9.278;2024-02-04T06:05:46;99852.06;;;8.13;81.19
9969;BME280;5025;48.890;9.278;2024-02-04T06:08:12;99854.94;;;8.11;81.49
9969;BME280;5025;48.890;9.278;2024-02-04T06:10:37;99849.75;;;8.10;81.46
9969;BME280;5025;48.890;9.278;2024-02-04T06:13:02;99849.75;;;8.10;81.47
9969;BME280;5025;48.890;9.278;2024-02-04T06:15:28;99856.81;;;8.11;81.38
9969;BME280;5025;48.890;9.278;2024-02-04T06:17:53;99862.19;;;8.11;81.64
9969;BME280;5025;48.890;9.278;2024-02-04T06:20:18;99861.16;;;8.12;81.49
9969;BME280;5025;48.890;9.278;2024-02-04T06:22:43;99862.38;;;8.09;81.57
9969;BME280;5025;48.890;9.278;2024-02-04T06:25:09;99855.50;;;8.06;81.75
9969;BME280;5025;48.890;9.278;2024-02-04T06:27:34;99860.88;;;8.06;81.71
9969;BME280;5025;48.890;9.278;2024-02-04T06:29:59;99854.19;;;8.02;81.92
9969;BME280;5025;48.890;9.278;2024-02-04T06:32:25;99851.22;;;7.97;82.05
9969;BME280;5025;48.890;9.278;2024-02-04T06:34:51;99845.78;;;7.90;82.17
9969;BME280;5025;48.890;9.278;2024-02-04T06:37:16;99854.84;;;7.89;82.55
9969;BME280;5025;48.890;9.278;2024-02-04T06:39:42;99857.25;;;7.84;82.76
9969;BME280;5025;48.890;9.278;2024-02-04T06:42:07;99867.38;;;7.82;82.85
9969;BME280;5025;48.890;9.278;2024-02-04T06:44:32;99866.72;;;7.80;83.09
9969;BME280;5025;48.890;9.278;2024-02-04T06:46:57;99871.72;;;7.83;82.96
9969;BME280;5025;48.890;9.278;2024-02-04T06:49:23;99879.59;;;7.85;82.93
9969;BME280;5025;48.890;9.278;2024-02-04T06:51:48;99880.34;;;7.79;83.21
9969;BME280;5025;48.890;9.278;2024-02-04T06:54:14;99874.13;;;7.78;83.52
9969;BME280;5025;48.890;9.278;2024-02-04T06:56:40;99884.06;;;7.78;83.48
9969;BME280;5025;48.890;9.278;2024-02-04T06:59:05;99877.84;;;7.77;83.53
9969;BME280;5025;48.890;9.278;2024-02-04T07:01:31;99866.88;;;7.79;83.52
9969;BME280;5025;48.890;9.278;2024-02-04T07:03:56;99869.75;;;7.77;83.27
9969;BME280;5025;48.890;9.278;2024-02-04T07:06:21;99862.19;;;7.81;83.23
9969;BME280;5025;48.890;9.278;2024-02-04T07:08:46;99863.66;;;7.83;83.09
9969;BME280;5025;48.890;9.278;2024-02-04T07:11:12;99860.13;;;7.83;82.93
9969;BME280;5025;48.890;9.278;2024-02-04T07:13:37;99846.50;;;7.84;82.96
9969;BME280;5025;48.890;9.278;2024-02-04T07:16:02;99848.38;;;7.84;82.98
9969;BME280;5025;48.890;9.278;2024-02-04T07:18:28;99854.31;;;7.79;83.21
9969;BME280;5025;48.890;9.278;2024-02-04T07:20:53;99850.75;;;7.79;83.38
9969;BME280;5025;48.890;9.278;2024-02-04T07:23:18;99840.66;;;7.81;83.51
9969;BME280;5025;48.890;9.278;2024-02-04T07:25:43;99843.63;;;7.86;83.36
9969;BME280;5025;48.890;9.278;2024-02-04T07:28:09;99851.06;;;7.84;83.39
9969;BME280;5025;48.890;9.278;2024-02-04T07:30:34;99844.00;;;7.83;83.40
9969;BME280;5025;48.890;9.278;2024-02-04T07:32:59;99845.69;;;7.84;83.52
9969;BME280;5025;48.890;9.278;2024-02-04T07:35:25;99853.75;;;7.84;83.46
9969;BME280;5025;48.890;9.278;2024-02-04T07:37:50;99851.50;;;7.87;83.61
9969;BME280;5025;48.890;9.278;2024-02-04T07:40:15;99857.34;;;7.91;83.27
9969;BME280;5025;48.890;9.278;2024-02-04T07:42:40;99857.34;;;7.91;83.35
9969;BME280;5025;48.890;9.278;2024-02-04T07:45:06;99873.13;;;7.94;83.34
9969;BME280;5025;48.890;9.278;2024-02-04T07:47:34;99862.81;;;7.98;83.28
9969;BME280;5025;48.890;9.278;2024-02-04T07:49:59;99865.31;;;7.99;83.20
9969;BME280;5025;48.890;9.278;2024-02-04T07:52:25;99862.34;;;7.94;83.24
9969;BME280;5025;48.890;9.278;2024-02-04T07:54:50;99859.66;;;7.94;83.39
9969;BME280;5025;48.890;9.278;2024-02-04T07:57:15;99852.72;;;8.00;83.44
9969;BME280;5025;48.890;9.278;2024-02-04T07:59:40;99847.16;;;8.01;83.40
9969;BME280;5025;48.890;9.278;2024-02-04T08:02:05;99842.88;;;8.07;83.28
9969;BME280;5025;48.890;9.278;2024-02-04T08:04:32;99829.91;;;8.11;82.94
9969;BME280;5025;48.890;9.278;2024-02-04T08:06:57;99822.66;;;8.11;83.26
9969;BME280;5025;48.890;9.278;2024-02-04T08:09:22;99835.53;;;8.16;83.03
9969;BME280;5025;48.890;9.278;2024-02-04T08:11:47;99842.41;;;8.18;82.79
9969;BME280;5025;48.890;9.278;2024-02-04T08:14:13;99841.19;;;8.21;83.12
9969;BME280;5025;48.890;9.278;2024-02-04T08:16:42;99845.19;;;8.25;82.69
9969;BME280;5025;48.890;9.278;2024-02-04T08:19:08;99844.19;;;8.26;82.65
9969;BME280;5025;48.890;9.278;2024-02-04T08:21:33;99851.69;;;8.31;82.32
9969;BME280;5025;48.890;9.278;2024-02-04T08:23:58;99847.94;;;8.32;82.42
9969;BME280;5025;48.890;9.278;2024-02-04T08:26:24;99846.50;;;8.29;82.56
9969;BME280;5025;48.890;9.278;2024-02-04T08:28:50;99847.75;;;8.33;82.14
9969;BME280;5025;48.890;9.278;2024-02-04T08:31:15;99862.34;;;8.39;82.08
9969;BME280;5025;48.890;9.278;2024-02-04T08:33:41;99860.47;;;8.39;81.96
9969;BME280;5025;48.890;9.278;2024-02-04T08:36:06;99860.47;;;8.39;81.88
9969;BME280;5025;48.890;9.278;2024-02-04T08:38:32;99858.94;;;8.45;81.79
9969;BME280;5025;48.890;9.278;2024-02-04T08:40:57;99856.88;;;8.47;81.77
9969;BME280;5025;48.890;9.278;2024-02-04T08:43:22;99855.41;;;8.45;81.58
9969;BME280;5025;48.890;9.278;2024-02-04T08:45:47;99856.56;;;8.42;81.84
9969;BME280;5025;48.890;9.278;2024-02-04T08:48:13;99851.38;;;8.40;82.08
9969;BME280;5025;48.890;9.278;2024-02-04T08:50:38;99851.38;;;8.40;81.92
9969;BME280;5025;48.890;9.278;2024-02-04T08:53:03;99851.19;;;8.42;82.17
9969;BME280;5025;48.890;9.278;2024-02-04T08:55:28;99852.59;;;8.38;82.60
9969;BME280;5025;48.890;9.278;2024-02-04T08:57:54;99851.38;;;8.40;82.57
9969;BME280;5025;48.890;9.278;2024-02-04T09:00:19;99853.53;;;8.45;82.79
9969;BME280;5025;48.890;9.278;2024-02-04T09:02:45;99847.78;;;8.48;82.66
9969;BME280;5025;48.890;9.278;2024-02-04T09:05:11;99842.66;;;8.53;82.67
9969;BME280;5025;48.890;9.278;2024-02-04T09:07:37;99847.03;;;8.54;82.71
9969;BME280;5025;48.890;9.278;2024-02-04T09:10:02;99849.28;;;8.51;83.46
9969;BME280;5025;48.890;9.278;2024-02-04T09:12:27;99847.97;;;8.47;84.36
9969;BME280;5025;48.890;9.278;2024-02-04T09:14:53;99846.09;;;8.47;84.67
9969;BME280;5025;48.890;9.278;2024-02-04T09:17:18;99856.31;;;8.52;84.92
9969;BME280;5025;48.890;9.278;2024-02-04T09:19:43;99852.47;;;8.61;84.34
9969;BME280;5025;48.890;9.278;2024-02-04T09:22:08;99857.47;;;8.64;83.86
9969;BME280;5025;48.890;9.278;2024-02-04T09:24:33;99849.03;;;8.67;83.57
9969;BME280;5025;48.890;9.278;2024-02-04T09:26:59;99861.47;;;8.68;83.36
9969;BME280;5025;48.890;9.278;2024-02-04T09:29:24;99862.31;;;8.69;83.02
9969;BME280;5025;48.890;9.278;2024-02-04T09:31:50;99867.50;;;8.70;83.07
9969;BME280;5025;48.890;9.278;2024-02-04T09:34:16;99868.16;;;8.72;82.78
9969;BME280;5025;48.890;9.278;2024-02-04T09:36:41;99858.03;;;8.74;82.36
9969;BME280;5025;48.890;9.278;2024-02-04T09:39:07;99863.41;;;8.74;82.16
9969;BME280;5025;48.890;9.278;2024-02-04T09:41:33;99853.47;;;8.75;82.04
9969;BME280;5025;48.890;9.278;2024-02-04T09:43:58;99856.44;;;8.80;82.08
9969;BME280;5025;48.890;9.278;2024-02-04T09:46:24;99872.00;;;8.63;83.00
9969;BME280;5025;48.890;9.278;2024-02-04T09:48:50;99866.50;;;8.56;84.26
9969;BME280;5025;48.890;9.278;2024-02-04T09:51:16;99859.03;;;8.73;83.58
9969;BME280;5025;48.890;9.278;2024-02-04T09:53:43;99858.47;;;8.78;83.28
9969;BME280;5025;48.890;9.278;2024-02-04T09:56:09;99843.16;;;8.78;83.02
9969;BME280;5025;48.890;9.278;2024-02-04T09:58:36;99831.47;;;8.71;83.20
9969;BME280;5025;48.890;9.278;2024-02-04T10:01:03;99821.22;;;8.82;83.06
9969;BME280;5025;48.890;9.278;2024-02-04T10:03:29;99817.81;;;8.94;82.66
9969;BME280;5025;48.890;9.278;2024-02-04T10:05:54;99818.84;;;8.93;81.86
9969;BME280;5025;48.890;9.278;2024-02-04T10:08:20;99816.72;;;8.89;81.75
9969;BME280;5025;48.890;9.278;2024-02-04T10:10:46;99827.41;;;8.97;81.73
9969;BME280;5025;48.890;9.278;2024-02-04T10:13:12;99815.38;;;9.00;81.38
9969;BME280;5025;48.890;9.278;2024-02-04T10:15:37;99815.47;;;9.06;81.34
9969;BME280;5025;48.890;9.278;2024-02-04T10:18:04;99791.59;;;9.03;80.79
9969;BME280;5025;48.890;9.278;2024-02-04T10:20:30;99790.03;;;9.15;80.60
9969;BME280;5025;48.890;9.278;2024-02-04T10:22:55;99813.06;;;9.18;80.41
9969;BME280;5025;48.890;9.278;2024-02-04T10:25:20;99791.06;;;9.14;80.31
9969;BME280;5025;48.890;9.278;2024-02-04T10:27:46;99812.81;;;9.13;80.06
9969;BME280;5025;48.890;9.278;2024-02-04T10:30:12;99810.31;;;9.11;79.58
9969;BME280;5025;48.890;9.278;2024-02-04T10:32:38;99811.59;;;9.15;79.81
9969;BME280;5025;48.890;9.278;2024-02-04T10:35:04;99847.28;;;9.18;80.08
9969;BME280;5025;48.890;9.278;2024-02-04T10:37:29;99825.31;;;9.21;80.01
9969;BME280;5025;48.890;9.278;2024-02-04T10:39:54;99805.69;;;9.27;79.85
9969;BME280;5025;48.890;9.278;2024-02-04T10:42:24;99812.59;;;9.36;79.43
9969;BME280;5025;48.890;9.278;2024-02-04T10:44:52;99813.56;;;9.28;79.05
9969;BME280;5025;48.890;9.278;2024-02-04T10:47:22;99820.59;;;9.29;78.91
9969;BME280;5025;48.890;9.278;2024-02-04T10:49:50;99808.59;;;9.32;78.69
9969;BME280;5025;48.890;9.278;2024-02-04T10:52:17;99806.34;;;9.36;78.74
9969;BME280;5025;48.890;9.278;2024-02-04T10:54:44;99803.06;;;9.40;79.00
9969;BME280;5025;48.890;9.278;2024-02-04T10:57:12;99793.38;;;9.46;78.86
9969;BME280;5025;48.890;9.278;2024-02-04T10:59:39;99818.03;;;9.43;77.75
9969;BME280;5025;48.890;9.278;2024-02-04T11:02:07;99798.25;;;9.36;77.47
9969;BME280;5025;48.890;9.278;2024-02-04T11:04:34;99784.97;;;9.34;77.25
9969;BME280;5025;48.890;9.278;2024-02-04T11:07:00;99800.56;;;9.39;76.69
9969;BME280;5025;48.890;9.278;2024-02-04T11:09:26;99772.78;;;9.38;76.91
9969;BME280;5025;48.890;9.278;2024-02-04T11:11:53;99782.38;;;9.47;77.09
9969;BME280;5025;48.890;9.278;2024-02-04T11:14:21;99763.34;;;9.56;77.12
9969;BME280;5025;48.890;9.278;2024-02-04T11:17:17;99763.84;;;9.66;76.67
9969;BME280;5025;48.890;9.278;2024-02-04T11:27:55;99770.81;;;9.89;74.46
9969;BME280;5025;48.890;9.278;2024-02-04T11:30:20;99784.25;;;9.82;74.01
9969;BME280;5025;48.890;9.278;2024-02-04T11:32:45;99778.00;;;9.75;74.57
9969;BME280;5025;48.890;9.278;2024-02-04T11:35:12;99758.66;;;9.71;74.60
9969;BME280;5025;48.890;9.278;2024-02-04T11:37:37;99743.47;;;9.63;74.23
9969;BME280;5025;48.890;9.278;2024-02-04T11:40:04;99761.94;;;9.60;75.03
9969;BME280;5025;48.890;9.278;2024-02-04T11:42:32;99746.38;;;9.62;75.72
9969;BME280;5025;48.890;9.278;2024-02-04T11:45:08;99736.25;;;9.64;76.02
9969;BME280;5025;48.890;9.278;2024-02-04T11:47:34;99727.09;;;9.65;75.65
9969;BME280;5025;48.890;9.278;2024-02-04T11:50:00;99732.69;;;9.63;75.59
9969;BME280;5025;48.890;9.278;2024-02-04T11:52:29;99727.69;;;9.60;75.44
9969;BME280;5025;48.890;9.278;2024-02-04T11:54:54;99734.75;;;9.61;75.73
9969;BME280;5025;48.890;9.278;2024-02-04T11:57:20;99730.25;;;9.68;75.81
9969;BME280;5025;48.890;9.278;2024-02-04T11:59:47;99705.78;;;9.70;75.59
9969;BME280;5025;48.890;9.278;2024-02-04T12:02:15;99722.19;;;9.75;75.85
9969;BME280;5025;48.890;9.278;2024-02-04T12:04:41;99704.53;;;9.73;76.28
9969;BME280;5025;48.890;9.278;2024-02-04T12:07:07;99719.50;;;9.75;76.11
9969;BME280;5025;48.890;9.278;2024-02-04T12:09:34;99713.06;;;9.76;75.77
9969;BME280;5025;48.890;9.278;2024-02-04T12:12:00;99722.81;;;9.77;76.09
9969;BME280;5025;48.890;9.278;2024-02-04T12:14:25;99717.88;;;9.81;75.61
9969;BME280;5025;48.890;9.278;2024-02-04T12:16:50;99695.69;;;9.85;75.64
9969;BME280;5025;48.890;9.278;2024-02-04T12:19:16;99690.91;;;9.94;75.47
9969;BME280;5025;48.890;9.278;2024-02-04T12:21:42;99707.56;;;10.04;75.01
9969;BME280;5025;48.890;9.278;2024-02-04T12:24:08;99707.81;;;10.16;74.79
9969;BME280;5025;48.890;9.278;2024-02-04T12:26:33;99701.81;;;10.28;74.35
9969;BME280;5025;48.890;9.278;2024-02-04T12:28:59;99691.25;;;10.33;74.20
9969;BME280;5025;48.890;9.278;2024-02-04T12:31:26;99708.91;;;10.29;73.77
9969;BME280;5025;48.890;9.278;2024-02-04T12:33:57;99697.84;;;10.23;73.26
9969;BME280;5025;48.890;9.278;2024-02-04T12:36:32;99700.78;;;10.29;74.16
9969;BME280;5025;48.890;9.278;2024-02-04T12:38:59;99693.53;;;10.29;73.41
9969;BME280;5025;48.890;9.278;2024-02-04T12:41:27;99699.94;;;10.28;72.84
9969;BME280;5025;48.890;9.278;2024-02-04T12:43:57;99706.81;;;10.31;72.58
9969;BME280;5025;48.890;9.278;2024-02-04T12:46:23;99693.56;;;10.36;72.90
9969;BME280;5025;48.890;9.278;2024-02-04T12:48:56;99698.56;;;10.46;72.54
9969;BME280;5025;48.890;9.278;2024-02-04T12:51:31;99688.19;;;10.56;72.45
9969;BME280;5025;48.890;9.278;2024-02-04T12:54:09;99675.28;;;10.51;71.94
9969;BME280;5025;48.890;9.278;2024-02-04T12:56:44;99704.19;;;10.44;72.38
9969;BME280;5025;48.890;9.278;2024-02-04T12:59:09;99670.72;;;10.45;72.16
9969;BME280;5025;48.890;9.278;2024-02-04T13:01:39;99685.28;;;10.44;72.37
9969;BME280;5025;48.890;9.278;2024-02-04T13:04:04;99691.31;;;10.39;72.36
9969;BME280;5025;48.890;9.278;2024-02-04T13:06:31;99687.31;;;10.29;73.11
9969;BME280;5025;48.890;9.278;2024-02-04T13:08:56;99683.94;;;10.27;73.11
9969;BME280;5025;48.890;9.278;2024-02-04T13:11:25;99677.72;;;10.19;73.88
9969;BME280;5025;48.890;9.278;2024-02-04T13:13:51;99688.94;;;10.16;73.87
9969;BME280;5025;48.890;9.278;2024-02-04T13:16:16;99677.28;;;10.16;74.20
9969;BME280;5025;48.890;9.278;2024-02-04T13:18:43;99671.06;;;10.15;74.39
9969;BME280;5025;48.890;9.278;2024-02-04T13:21:08;99660.28;;;10.15;74.66
9969;BME280;5025;48.890;9.278;2024-02-04T13:23:34;99675.44;;;10.16;74.65
9969;BME280;5025;48.890;9.278;2024-02-04T13:25:59;99674.38;;;10.17;74.76
9969;BME280;5025;48.890;9.278;2024-02-04T13:28:25;99677.06;;;10.17;74.46
9969;BME280;5025;48.890;9.278;2024-02-04T13:30:50;99675.84;;;10.20;74.70
9969;BME280;5025;48.890;9.278;2024-02-04T13:33:15;99687.88;;;10.17;74.60
9969;BME280;5025;48.890;9.278;2024-02-04T13:35:41;99676.88;;;10.19;74.60
9969;BME280;5025;48.890;9.278;2024-02-04T13:38:06;99656.53;;;10.16;74.27